createdAt,value
2017-11-17T00:00:13.057Z,31.20
2017-11-17T00:02:47.561Z,31.23
2017-11-17T00:05:22.560Z,30.23
2017-11-17T00:07:56.944Z,30.97
2017-11-17T00:10:31.407Z,30.73
2017-11-17T00:13:05.956Z,29.47
2017-11-17T00:15:40.372Z,28.43
2017-11-17T00:18:14.728Z,28.53
2017-11-17T00:20:50.008Z,25.53
2017-11-17T00:23:24.607Z,27.60
2017-11-17T00:25:59.519Z,26.10
2017-11-17T00:28:34.097Z,25.67
2017-11-17T00:31:08.482Z,24.40
2017-11-17T00:33:42.925Z,25.30
2017-11-17T00:36:17.284Z,24.23
2017-11-17T00:38:51.683Z,24.17
2017-11-17T00:41:26.156Z,25.67
2017-11-17T00:44:00.548Z,23.57
2017-11-17T00:46:35.407Z,22.83
2017-11-17T00:49:09.884Z,21.97
2017-11-17T00:51:44.327Z,24.50
2017-11-17T00:54:18.694Z,20.67
2017-11-17T00:56:53.087Z,23.70
2017-11-17T00:59:27.562Z,23.60
2017-11-17T01:02:02.027Z,22.63
2017-11-17T01:04:36.599Z,21.30
2017-11-17T01:07:11.035Z,23.40
2017-11-17T01:09:45.524Z,22.53
2017-11-17T01:12:20.171Z,21.07
2017-11-17T01:14:54.569Z,23.90
2017-11-17T01:17:29.067Z,21.43
2017-11-17T01:22:44.084Z,23.90
2017-11-17T01:25:18.533Z,23.37
2017-11-17T01:27:53.074Z,21.20
2017-11-17T01:30:27.656Z,21.73
2017-11-17T01:33:02.203Z,21.97
2017-11-17T01:35:36.664Z,22.90
2017-11-17T01:38:11.039Z,22.03
2017-11-17T01:40:45.559Z,19.40
2017-11-17T01:43:20.125Z,20.63
2017-11-17T01:45:54.589Z,20.13
2017-11-17T01:48:28.947Z,20.27
2017-11-17T01:51:03.686Z,20.73
2017-11-17T01:53:38.210Z,20.53
2017-11-17T01:56:12.316Z,20.90
2017-11-17T01:58:46.883Z,19.33
2017-11-17T02:01:21.354Z,20.57
2017-11-17T02:03:55.859Z,20.57
2017-11-17T02:06:30.262Z,21.80
2017-11-17T02:09:03.883Z,19.13
2017-11-17T02:11:38.432Z,18.17
2017-11-17T02:14:12.959Z,20.00
2017-11-17T02:16:47.350Z,19.63
2017-11-17T02:19:22.035Z,20.90
2017-11-17T02:21:56.940Z,19.17
2017-11-17T02:24:31.039Z,20.87
2017-11-17T02:27:05.693Z,17.83
2017-11-17T02:29:39.591Z,18.53
2017-11-17T02:32:14.018Z,18.90
2017-11-17T02:34:49.109Z,18.63
2017-11-17T02:37:24.185Z,16.50
2017-11-17T02:39:58.732Z,15.77
2017-11-17T02:42:33.181Z,15.57
2017-11-17T02:45:13.800Z,17.53
2017-11-17T02:47:48.053Z,15.20
2017-11-17T02:50:21.934Z,17.00
2017-11-17T02:52:56.244Z,17.47
2017-11-17T02:55:30.303Z,16.57
2017-11-17T02:58:04.438Z,16.20
2017-11-17T03:00:38.810Z,16.50
2017-11-17T03:03:13.730Z,15.87
2017-11-17T03:05:47.814Z,14.60
2017-11-17T03:08:22.429Z,18.20
2017-11-17T03:10:57.031Z,17.60
2017-11-17T03:13:31.614Z,16.30
2017-11-17T03:16:05.706Z,17.13
2017-11-17T03:18:40.047Z,17.30
2017-11-17T03:21:14.471Z,16.30
2017-11-17T03:23:49.032Z,15.70
2017-11-17T03:26:23.211Z,17.30
2017-11-17T03:28:57.267Z,14.70
2017-11-17T03:31:31.838Z,15.60
2017-11-17T03:34:06.415Z,16.53
2017-11-17T03:36:40.771Z,15.17
2017-11-17T03:39:15.151Z,15.80
2017-11-17T03:41:49.534Z,16.07
2017-11-17T03:44:23.735Z,16.43
2017-11-17T03:46:59.155Z,14.67
2017-11-17T03:49:33.648Z,14.33
2017-11-17T03:52:08.013Z,12.97
2017-11-17T03:54:42.746Z,14.20
2017-11-17T03:57:17.247Z,14.57
2017-11-17T03:59:51.636Z,14.50
2017-11-17T04:02:26.008Z,13.80
2017-11-17T04:05:00.917Z,15.73
2017-11-17T04:07:35.323Z,15.00
2017-11-17T04:10:14.681Z,15.80
2017-11-17T04:12:49.090Z,13.60
2017-11-17T04:15:23.567Z,13.10
2017-11-17T04:17:57.684Z,13.37
2017-11-17T04:20:32.116Z,15.90
2017-11-17T04:23:06.492Z,13.93
2017-11-17T04:25:40.864Z,13.60
2017-11-17T04:28:15.445Z,15.37
2017-11-17T04:30:49.919Z,15.10
2017-11-17T04:33:24.467Z,14.63
2017-11-17T04:35:58.841Z,15.60
2017-11-17T04:38:33.339Z,15.50
2017-11-17T04:41:07.738Z,15.40
2017-11-17T04:43:42.218Z,16.33
2017-11-17T04:46:16.605Z,16.93
2017-11-17T04:48:51.143Z,15.30
2017-11-17T04:51:26.348Z,15.73
2017-11-17T04:54:00.983Z,14.60
2017-11-17T04:56:35.476Z,18.30
2017-11-17T04:59:09.899Z,16.40
2017-11-17T05:01:44.383Z,15.97
2017-11-17T05:04:18.995Z,18.43
2017-11-17T05:06:53.448Z,17.30
2017-11-17T05:09:28.054Z,18.77
2017-11-17T05:12:02.432Z,20.07
2017-11-17T05:14:36.961Z,20.83
2017-11-17T05:17:11.413Z,20.23
2017-11-17T05:19:45.800Z,20.50
2017-11-17T05:22:20.167Z,20.80
2017-11-17T05:24:54.507Z,19.60
2017-11-17T05:27:29.006Z,20.53
2017-11-17T05:30:03.502Z,22.80
2017-11-17T05:32:38.242Z,19.07
2017-11-17T05:35:12.802Z,19.57
2017-11-17T05:37:47.538Z,19.87
2017-11-17T05:40:21.920Z,21.93
2017-11-17T05:42:56.451Z,21.53
2017-11-17T05:45:31.228Z,19.43
2017-11-17T05:48:05.639Z,20.60
2017-11-17T05:50:40.083Z,19.03
2017-11-17T05:53:14.552Z,18.93
2017-11-17T05:55:48.960Z,18.63
2017-11-17T05:58:23.515Z,20.10
2017-11-17T06:00:57.902Z,20.03
2017-11-17T06:03:32.340Z,19.20
2017-11-17T06:06:07.572Z,19.83
2017-11-17T06:08:41.989Z,18.10
2017-11-17T06:11:16.368Z,19.60
2017-11-17T06:13:50.917Z,18.80
2017-11-17T06:16:25.308Z,19.77
2017-11-17T06:18:59.880Z,17.93
2017-11-17T06:21:34.228Z,19.10
2017-11-17T06:24:08.695Z,20.33
2017-11-17T06:26:43.273Z,20.37
2017-11-17T06:29:18.047Z,19.57
2017-11-17T06:31:52.515Z,21.10
2017-11-17T06:34:27.068Z,19.03
2017-11-17T06:37:01.529Z,17.70
2017-11-17T06:39:36.035Z,22.23
2017-11-17T06:42:12.112Z,19.50
2017-11-17T06:44:46.562Z,19.90
2017-11-17T06:47:21.588Z,21.60
2017-11-17T06:49:56.553Z,18.70
2017-11-17T06:52:31.115Z,16.90
2017-11-17T06:55:14.039Z,18.50
2017-11-17T06:57:48.389Z,18.70
2017-11-17T07:00:22.748Z,19.43
2017-11-17T07:02:57.191Z,18.00
2017-11-17T07:05:31.616Z,17.77
2017-11-17T07:08:06.139Z,19.00
2017-11-17T07:10:40.553Z,17.80
2017-11-17T07:13:15.937Z,17.73
2017-11-17T07:15:50.434Z,16.27
2017-11-17T07:18:25.008Z,16.00
2017-11-17T07:20:59.395Z,16.77
2017-11-17T07:23:33.961Z,17.60
2017-11-17T07:26:08.335Z,16.30
2017-11-17T07:28:42.684Z,15.80
2017-11-17T07:31:17.151Z,17.50
2017-11-17T07:33:51.696Z,15.00
2017-11-17T07:36:27.011Z,16.03
2017-11-17T07:39:01.516Z,14.60
2017-11-17T07:41:36.486Z,18.67
2017-11-17T07:44:11.087Z,16.50
2017-11-17T07:46:45.464Z,29.73
2017-11-17T07:49:20.004Z,15.60
2017-11-17T07:51:54.454Z,21.03
2017-11-17T07:54:28.994Z,18.20
2017-11-17T07:57:03.420Z,16.67
2017-11-17T07:59:37.993Z,17.63
2017-11-17T08:02:12.412Z,17.70
2017-11-17T08:04:46.550Z,18.07
2017-11-17T08:07:20.793Z,17.93
2017-11-17T08:09:55.249Z,31.67
2017-11-17T08:12:29.866Z,18.87
2017-11-17T08:15:13.416Z,21.33
2017-11-17T08:17:59.252Z,19.07
2017-11-17T08:20:33.759Z,18.27
2017-11-17T08:23:08.257Z,20.20
2017-11-17T08:25:42.653Z,18.87
2017-11-17T08:28:16.688Z,19.27
2017-11-17T08:30:51.704Z,19.53
2017-11-17T08:33:26.306Z,18.73
2017-11-17T08:36:00.861Z,17.80
2017-11-17T08:38:35.427Z,16.13
2017-11-17T08:41:09.903Z,17.33
2017-11-17T08:43:44.288Z,19.33
2017-11-17T08:46:18.771Z,16.47
2017-11-17T08:48:53.289Z,16.83
2017-11-17T08:51:27.703Z,16.80
2017-11-17T08:54:02.069Z,19.33
2017-11-17T08:56:36.860Z,15.70
2017-11-17T08:59:11.437Z,17.43
2017-11-17T09:01:45.935Z,17.67
2017-11-17T09:04:20.388Z,18.43
2017-11-17T09:06:54.763Z,16.57
2017-11-17T09:09:29.352Z,19.07
2017-11-17T09:12:03.901Z,16.33
2017-11-17T09:14:38.511Z,19.97
2017-11-17T09:17:12.912Z,15.87
2017-11-17T09:19:47.436Z,16.90
2017-11-17T09:22:21.863Z,15.13
2017-11-17T09:24:56.394Z,18.63
2017-11-17T09:27:30.839Z,13.67
2017-11-17T09:30:09.020Z,14.43
2017-11-17T09:32:43.530Z,13.80
2017-11-17T09:35:17.940Z,11.90
2017-11-17T09:37:52.975Z,13.37
2017-11-17T09:40:27.558Z,11.40
2017-11-17T09:43:02.912Z,10.30
2017-11-17T09:45:37.343Z,11.00
2017-11-17T09:48:11.870Z,13.00
2017-11-17T09:50:46.349Z,13.80
2017-11-17T09:53:20.815Z,14.33
2017-11-17T09:55:55.292Z,14.53
2017-11-17T09:58:29.808Z,14.90
2017-11-17T10:01:04.885Z,12.23
2017-11-17T10:03:39.683Z,12.90
2017-11-17T10:06:14.187Z,13.27
2017-11-17T10:08:48.632Z,13.77
2017-11-17T10:11:23.007Z,12.37
2017-11-17T10:13:57.495Z,12.97
2017-11-17T10:16:31.936Z,11.93
2017-11-17T10:19:06.427Z,14.53
2017-11-17T10:21:40.775Z,11.93
2017-11-17T10:24:15.016Z,12.27
2017-11-17T10:26:49.552Z,12.03
2017-11-17T10:29:23.950Z,12.50
2017-11-17T10:31:58.339Z,11.53
2017-11-17T10:34:32.971Z,14.17
2017-11-17T10:37:07.503Z,12.37
2017-11-17T10:39:41.991Z,10.53
2017-11-17T10:42:16.375Z,11.60
2017-11-17T10:44:50.740Z,10.67
2017-11-17T10:47:25.951Z,12.97
2017-11-17T10:50:00.689Z,11.60
2017-11-17T10:52:35.268Z,11.40
2017-11-17T10:55:13.864Z,11.50
2017-11-17T10:57:48.244Z,13.47
2017-11-17T11:00:23.064Z,14.40
2017-11-17T11:02:57.577Z,12.03
2017-11-17T11:05:31.854Z,13.63
2017-11-17T11:08:06.495Z,12.40
2017-11-17T11:10:40.852Z,11.77
2017-11-17T11:13:15.303Z,12.50
2017-11-17T11:15:49.700Z,12.33
2017-11-17T11:18:24.168Z,13.17
2017-11-17T11:20:59.558Z,13.77
2017-11-17T11:23:34.003Z,13.03
2017-11-17T11:26:08.416Z,11.27
2017-11-17T11:28:43.171Z,11.70
2017-11-17T11:31:17.648Z,11.63
2017-11-17T11:33:52.159Z,12.20
2017-11-17T11:36:26.259Z,11.00
2017-11-17T11:39:01.063Z,11.00
2017-11-17T11:41:35.887Z,11.83
2017-11-17T11:44:10.294Z,10.67
2017-11-17T11:46:44.680Z,10.90
2017-11-17T11:49:19.075Z,11.77
2017-11-17T11:51:53.716Z,11.63
2017-11-17T11:54:28.301Z,21.27
2017-11-17T11:57:02.679Z,12.57
2017-11-17T11:59:37.243Z,18.37
2017-11-17T12:02:11.676Z,10.93
2017-11-17T12:04:46.226Z,12.23
2017-11-17T12:07:20.687Z,13.00
2017-11-17T12:09:55.194Z,11.57
2017-11-17T12:12:29.607Z,10.80
2017-11-17T12:15:13.580Z,11.50
2017-11-17T12:17:47.955Z,12.80
2017-11-17T12:20:22.444Z,11.00
2017-11-17T12:22:56.950Z,13.20
2017-11-17T12:25:31.381Z,13.00
2017-11-17T12:28:05.906Z,11.77
2017-11-17T12:30:40.304Z,12.60
2017-11-17T12:33:14.855Z,11.63
2017-11-17T12:35:49.643Z,11.90
2017-11-17T12:38:24.186Z,14.10
2017-11-17T12:40:58.648Z,13.10
2017-11-17T12:43:33.227Z,12.63
2017-11-17T12:46:07.664Z,13.70
2017-11-17T12:48:42.116Z,14.07
2017-11-17T12:51:16.592Z,12.33
2017-11-17T12:53:51.641Z,13.43
2017-11-17T12:56:26.173Z,13.30
2017-11-17T12:59:00.679Z,13.90
2017-11-17T13:01:35.104Z,12.97
2017-11-17T13:04:09.524Z,12.53
2017-11-17T13:06:43.928Z,13.70
2017-11-17T13:09:18.381Z,12.50
2017-11-17T13:11:52.918Z,13.77
2017-11-17T13:14:27.404Z,13.33
2017-11-17T13:17:01.821Z,13.50
2017-11-17T13:19:36.379Z,13.80
2017-11-17T13:22:10.768Z,13.60
2017-11-17T13:24:45.481Z,12.93
2017-11-17T13:27:19.857Z,14.10
2017-11-17T13:29:54.495Z,14.60
2017-11-17T13:32:28.860Z,14.23
2017-11-17T13:37:44.160Z,13.03
2017-11-17T13:40:18.793Z,13.23
2017-11-17T13:42:53.177Z,12.43
2017-11-17T13:45:27.597Z,13.90
2017-11-17T13:48:02.195Z,12.57
2017-11-17T13:50:36.588Z,12.93
2017-11-17T13:53:10.758Z,12.57
2017-11-17T13:55:45.907Z,14.47
2017-11-17T13:58:20.368Z,13.10
2017-11-17T14:00:54.772Z,13.60
2017-11-17T14:03:29.329Z,12.63
2017-11-17T14:06:03.871Z,14.77
2017-11-17T14:08:38.439Z,12.97
2017-11-17T14:11:12.791Z,12.53
2017-11-17T14:13:47.404Z,13.90
2017-11-17T14:16:21.812Z,13.90
2017-11-17T14:18:56.423Z,13.90
2017-11-17T14:21:30.840Z,12.27
2017-11-17T14:24:05.433Z,11.97
2017-11-17T14:26:40.168Z,12.70
2017-11-17T14:29:14.809Z,14.70
2017-11-17T14:31:49.202Z,13.07
2017-11-17T14:34:23.827Z,13.27
2017-11-17T14:36:58.172Z,14.00
2017-11-17T14:39:34.851Z,13.67
2017-11-17T14:42:09.350Z,13.13
2017-11-17T14:44:43.780Z,13.10
2017-11-17T14:47:18.184Z,14.50
2017-11-17T14:49:52.667Z,13.10
2017-11-17T14:52:27.060Z,14.30
2017-11-17T14:55:01.455Z,13.80
2017-11-17T14:57:35.884Z,14.77
2017-11-17T15:00:13.463Z,13.83
2017-11-17T15:02:48.082Z,14.33
2017-11-17T15:05:26.700Z,13.03
2017-11-17T15:08:02.095Z,13.87
2017-11-17T15:10:37.022Z,14.00
2017-11-17T15:13:14.343Z,14.53
2017-11-17T15:15:48.870Z,13.57
2017-11-17T15:18:23.310Z,14.17
2017-11-17T15:20:58.595Z,14.50
2017-11-17T15:23:33.185Z,14.83
2017-11-17T15:26:07.674Z,14.77
2017-11-17T15:28:43.144Z,14.20
2017-11-17T15:31:18.638Z,15.20
2017-11-17T15:33:53.218Z,14.00
2017-11-17T15:36:27.658Z,13.70
2017-11-17T15:39:02.255Z,15.90
2017-11-17T15:41:36.875Z,14.07
2017-11-17T15:44:11.071Z,15.20
2017-11-17T15:46:45.502Z,13.67
2017-11-17T15:49:20.092Z,15.33
2017-11-17T15:51:54.483Z,13.03
2017-11-17T15:54:28.926Z,15.83
2017-11-17T15:57:03.100Z,13.87
2017-11-17T15:59:37.489Z,15.97
2017-11-17T16:02:11.898Z,14.17
2017-11-17T16:04:46.387Z,14.53
2017-11-17T16:07:20.669Z,15.10
2017-11-17T16:09:55.134Z,15.17
2017-11-17T16:12:29.589Z,15.70
2017-11-17T16:15:12.691Z,16.50
2017-11-17T16:17:47.267Z,15.60
2017-11-17T16:20:21.778Z,16.07
2017-11-17T16:22:56.307Z,15.23
2017-11-17T16:25:30.660Z,15.53
2017-11-17T16:28:05.237Z,16.43
2017-11-17T16:30:39.292Z,15.57
2017-11-17T16:33:14.586Z,15.83
2017-11-17T16:35:49.067Z,17.77
2017-11-17T16:38:24.440Z,16.10
2017-11-17T16:40:58.677Z,15.20
2017-11-17T16:43:33.125Z,16.73
2017-11-17T16:46:07.176Z,16.33
2017-11-17T16:48:41.723Z,16.60
2017-11-17T16:51:16.088Z,16.33
2017-11-17T16:53:50.596Z,17.03
2017-11-17T16:56:24.988Z,17.07
2017-11-17T16:58:59.568Z,17.70
2017-11-17T17:01:33.955Z,15.00
2017-11-17T17:04:08.443Z,16.93
2017-11-17T17:06:42.723Z,16.93
2017-11-17T17:09:17.193Z,17.53
2017-11-17T17:11:51.305Z,16.63
2017-11-17T17:14:25.816Z,16.87
2017-11-17T17:17:00.219Z,15.40
2017-11-17T17:19:34.683Z,18.00
2017-11-17T17:22:09.047Z,17.70
2017-11-17T17:24:43.460Z,18.10
2017-11-17T17:27:17.907Z,16.83
2017-11-17T17:29:52.359Z,17.40
2017-11-17T17:32:26.757Z,17.80
2017-11-17T17:35:01.317Z,17.37
2017-11-17T17:37:35.726Z,18.90
2017-11-17T17:40:13.151Z,17.60
2017-11-17T17:42:47.731Z,16.73
2017-11-17T17:45:22.192Z,17.53
2017-11-17T17:47:56.560Z,17.17
2017-11-17T17:50:30.953Z,18.60
2017-11-17T17:53:05.420Z,18.50
2017-11-17T17:55:39.817Z,18.90
2017-11-17T17:58:14.410Z,19.40
2017-11-17T18:00:48.427Z,20.07
2017-11-17T18:03:22.815Z,20.80
2017-11-17T18:05:57.176Z,18.77
2017-11-17T18:08:31.765Z,19.33
2017-11-17T18:11:06.515Z,20.13
2017-11-17T18:13:41.022Z,18.20
2017-11-17T18:16:15.410Z,19.03
2017-11-17T18:18:50.077Z,20.20
2017-11-17T18:21:24.473Z,20.73
2017-11-17T18:23:58.993Z,18.40
2017-11-17T18:26:34.376Z,21.40
2017-11-17T18:29:09.001Z,21.40
2017-11-17T18:31:43.529Z,22.00
2017-11-17T18:34:18.127Z,21.00
2017-11-17T18:36:52.634Z,19.47
2017-11-17T18:39:27.222Z,20.83
2017-11-17T18:42:02.227Z,19.83
2017-11-17T18:44:36.795Z,20.00
2017-11-17T18:47:11.545Z,22.37
2017-11-17T18:49:46.189Z,19.53
2017-11-17T18:52:21.030Z,20.27
2017-11-17T18:54:55.758Z,18.43
2017-11-17T18:57:30.185Z,20.13
2017-11-17T19:00:04.117Z,19.10
2017-11-17T19:02:43.122Z,20.30
2017-11-17T19:05:17.776Z,19.43
2017-11-17T19:07:53.315Z,18.87
2017-11-17T19:10:27.867Z,18.20
2017-11-17T19:13:02.363Z,17.23
2017-11-17T19:15:37.089Z,17.43
2017-11-17T19:18:12.200Z,18.23
2017-11-17T19:20:47.004Z,15.83
2017-11-17T19:23:21.615Z,18.03
2017-11-17T19:25:56.003Z,17.93
2017-11-17T19:28:30.459Z,14.93
2017-11-17T19:31:05.342Z,14.37
2017-11-17T19:33:48.580Z,16.63
2017-11-17T19:39:22.383Z,15.07
2017-11-17T19:42:04.108Z,15.37
2017-11-17T19:44:43.817Z,18.17
2017-11-17T19:47:27.062Z,18.33
2017-11-17T19:50:03.721Z,14.20
2017-11-17T19:52:38.579Z,16.40
2017-11-17T19:55:15.460Z,16.77
2017-11-17T19:57:49.972Z,17.00
2017-11-17T20:00:25.506Z,17.70
2017-11-17T20:03:00.677Z,17.40
2017-11-17T20:05:35.392Z,17.73
2017-11-17T20:08:09.837Z,18.70
2017-11-17T20:10:44.233Z,19.07
2017-11-17T20:13:19.316Z,18.20
2017-11-17T20:15:53.752Z,17.13
2017-11-17T20:18:28.373Z,17.73
2017-11-17T20:21:03.147Z,19.73
2017-11-17T20:23:37.924Z,16.93
2017-11-17T20:26:12.347Z,18.97
2017-11-17T20:28:47.032Z,19.60
2017-11-17T20:31:21.448Z,17.30
2017-11-17T20:34:05.819Z,20.50
2017-11-17T20:36:40.340Z,17.40
2017-11-17T20:39:14.828Z,19.10
2017-11-17T20:41:49.265Z,17.07
2017-11-17T20:44:23.813Z,18.97
2017-11-17T20:46:59.607Z,17.13
2017-11-17T20:49:34.243Z,18.03
2017-11-17T20:52:08.646Z,18.00
2017-11-17T20:54:43.172Z,17.37
2017-11-17T20:57:17.591Z,18.10
2017-11-17T20:59:52.144Z,18.80
2017-11-17T21:02:26.551Z,17.90
2017-11-17T21:05:01.114Z,18.57
2017-11-17T21:07:35.940Z,18.40
2017-11-17T21:10:15.077Z,18.53
2017-11-17T21:12:49.615Z,17.43
2017-11-17T21:15:24.347Z,17.90
2017-11-17T21:17:58.784Z,17.83
2017-11-17T21:20:33.177Z,17.50
2017-11-17T21:23:07.628Z,19.17
2017-11-17T21:25:42.435Z,17.40
2017-11-17T21:28:16.830Z,19.27
2017-11-17T21:30:51.356Z,19.03
2017-11-17T21:33:25.913Z,16.13
2017-11-17T21:36:00.360Z,18.07
2017-11-17T21:38:34.823Z,16.10
2017-11-17T21:41:09.243Z,17.83
2017-11-17T21:43:43.759Z,16.80
2017-11-17T21:46:19.447Z,18.03
2017-11-17T21:48:53.873Z,16.43
2017-11-17T21:51:28.277Z,17.23
2017-11-17T21:54:02.708Z,15.93
2017-11-17T21:56:37.079Z,16.97
2017-11-17T21:59:11.460Z,15.43
2017-11-17T22:01:45.816Z,17.03
2017-11-17T22:04:20.225Z,17.10
2017-11-17T22:06:54.598Z,18.03
2017-11-17T22:09:29.123Z,17.23
2017-11-17T22:12:03.475Z,16.07
2017-11-17T22:14:37.974Z,16.37
2017-11-17T22:17:12.393Z,17.60
2017-11-17T22:19:47.045Z,16.30
2017-11-17T22:22:21.452Z,17.20
2017-11-17T22:24:55.844Z,17.80
2017-11-17T22:27:30.304Z,16.50
2017-11-17T22:30:13.531Z,17.17
2017-11-17T22:32:48.075Z,18.13
2017-11-17T22:35:22.512Z,19.63
2017-11-17T22:37:57.084Z,18.27
2017-11-17T22:40:31.520Z,19.17
2017-11-17T22:43:06.105Z,17.80
2017-11-17T22:45:40.875Z,18.13
2017-11-17T22:48:15.257Z,18.80
2017-11-17T22:50:49.744Z,18.07
2017-11-17T22:53:24.254Z,18.03
2017-11-17T22:55:58.858Z,17.93
2017-11-17T22:58:33.522Z,21.50
2017-11-17T23:01:08.373Z,20.20
2017-11-17T23:03:43.096Z,20.60
2017-11-17T23:06:17.522Z,20.60
2017-11-17T23:08:52.214Z,18.40
2017-11-17T23:11:26.673Z,19.67
2017-11-17T23:14:01.052Z,18.23
2017-11-17T23:16:35.551Z,20.20
2017-11-17T23:19:10.375Z,19.33
2017-11-17T23:21:44.759Z,19.13
2017-11-17T23:24:19.181Z,19.57
2017-11-17T23:26:53.619Z,18.60
2017-11-17T23:29:28.128Z,18.93
2017-11-17T23:32:02.479Z,18.40
2017-11-17T23:34:37.116Z,21.53
2017-11-17T23:37:11.864Z,20.67
2017-11-17T23:39:46.462Z,20.87
2017-11-17T23:42:21.240Z,18.97
2017-11-17T23:44:55.794Z,18.80
2017-11-17T23:47:30.504Z,21.08
2017-11-17T23:50:13.425Z,19.33
2017-11-17T23:52:48.111Z,17.30
2017-11-17T23:55:22.499Z,20.23
2017-11-17T23:57:57.001Z,18.10
